Time;durP1;ratioP1;P1;durP2;ratioP2;P2;SDS_P1;SDS_P2;PMS_P1;PMS_P2;Temp;Humidity;BMP_temperature;BMP_pressure;BME280_temperature;BME280_humidity;BME280_pressure;Samples;Min_cycle;Max_cycle;Signal;HPM_P1;HPM_P2
2022/07/31 00:00:40;;;;;;;2.08;1.48;;;20.20;84.90;;;;;;5030050;28;20091;-39
2022/07/31 00:03:07;;;;;;;4.20;2.25;;;20.20;85.00;;;;;;5030081;28;20073;-39
2022/07/31 00:05:33;;;;;;;3.58;2.17;;;20.20;85.20;;;;;;5024706;28;20038;-41
2022/07/31 00:07:59;;;;;;;7.72;1.80;;;20.20;85.50;;;;;;5029989;28;20038;-40
2022/07/31 00:10:25;;;;;;;4.13;2.15;;;20.10;85.50;;;;;;5023549;28;20371;-39
2022/07/31 00:12:51;;;;;;;4.45;2.70;;;20.10;85.70;;;;;;5019846;28;20056;-41
2022/07/31 00:15:17;;;;;;;4.68;2.60;;;20.10;85.70;;;;;;5030137;28;20078;-41
2022/07/31 00:17:44;;;;;;;3.55;1.90;;;20.10;85.80;;;;;;5028265;28;20096;-41
2022/07/31 00:20:14;;;;;;;5.68;2.65;;;20.10;86.00;;;;;;5030074;28;20045;-38
2022/07/31 00:22:44;;;;;;;4.25;2.08;;;20.20;86.00;;;;;;5029323;28;20041;-38
2022/07/31 00:25:11;;;;;;;5.40;2.47;;;20.20;86.10;;;;;;5029867;28;20119;-39
2022/07/31 00:27:38;;;;;;;6.28;2.58;;;20.20;86.10;;;;;;5029509;28;20103;-41
2022/07/31 00:30:04;;;;;;;4.82;2.28;;;20.20;86.20;;;;;;5021545;28;20045;-41
2022/07/31 00:32:30;;;;;;;5.95;2.45;;;20.20;86.40;;;;;;5021643;28;20159;-38
2022/07/31 00:34:55;;;;;;;7.43;2.20;;;20.20;86.60;;;;;;5029880;28;20498;-39
2022/07/31 00:37:21;;;;;;;3.20;1.70;;;20.20;86.80;;;;;;5029389;28;20883;-38
2022/07/31 00:39:47;;;;;;;4.10;2.30;;;20.20;87.00;;;;;;5020015;28;20100;-38
2022/07/31 00:42:20;;;;;;;5.40;2.67;;;20.20;87.10;;;;;;5029574;28;20368;-42
2022/07/31 00:44:46;;;;;;;5.05;2.42;;;20.20;87.00;;;;;;5028766;28;20037;-41
2022/07/31 00:47:12;;;;;;;3.63;2.45;;;20.10;87.00;;;;;;5030661;28;20029;-38
2022/07/31 00:49:37;;;;;;;3.90;2.05;;;20.10;87.20;;;;;;5033525;28;20405;-38
2022/07/31 00:52:04;;;;;;;6.50;2.75;;;20.10;87.30;;;;;;5033185;28;20030;-39
2022/07/31 00:54:29;;;;;;;4.95;2.40;;;20.10;87.40;;;;;;5029828;28;20072;-39
2022/07/31 00:56:55;;;;;;;4.38;2.70;;;20.10;87.50;;;;;;5032850;28;20045;-38
2022/07/31 00:59:21;;;;;;;5.25;1.92;;;20.10;87.60;;;;;;5027867;28;20037;-40
2022/07/31 01:01:46;;;;;;;4.60;2.60;;;20.10;87.60;;;;;;5031782;28;20084;-38
2022/07/31 01:04:15;;;;;;;4.97;2.10;;;20.10;87.60;;;;;;5047542;28;20033;-41
2022/07/31 01:06:40;;;;;;;5.32;2.30;;;20.10;87.60;;;;;;5032835;28;20045;-41
2022/07/31 01:09:06;;;;;;;6.80;2.60;;;20.10;87.60;;;;;;5033195;28;20549;-40
2022/07/31 01:11:40;;;;;;;7.65;2.65;;;20.10;87.80;;;;;;5032794;28;20041;-38
2022/07/31 01:14:07;;;;;;;4.22;2.35;;;20.10;88.00;;;;;;5021959;28;20447;-38
2022/07/31 01:16:50;;;;;;;2.78;1.90;;;20.10;88.00;;;;;;5031545;28;20030;-39
2022/07/31 01:19:41;;;;;;;4.97;2.40;;;20.10;88.30;;;;;;5032349;28;20131;-38
2022/07/31 01:22:35;;;;;;;4.50;2.10;;;20.00;88.20;;;;;;5013090;28;20092;-40
2022/07/31 01:25:31;;;;;;;13.55;2.33;;;20.00;88.70;;;;;;5023264;28;20049;-38
2022/07/31 01:28:09;;;;;;;4.45;2.03;;;20.00;88.60;;;;;;5022835;28;20080;-38
2022/07/31 01:30:42;;;;;;;3.90;1.65;;;20.00;88.60;;;;;;5032504;28;20045;-38
2022/07/31 01:33:17;;;;;;;6.00;2.13;;;20.00;88.80;;;;;;5032192;28;20025;-39
2022/07/31 01:35:50;;;;;;;5.68;2.20;;;20.00;88.90;;;;;;5032457;28;20046;-40
2022/07/31 01:38:22;;;;;;;4.55;2.65;;;20.00;89.00;;;;;;5025930;28;20144;-42
2022/07/31 01:40:56;;;;;;;4.30;1.98;;;19.90;89.20;;;;;;5032476;28;20053;-38
2022/07/31 01:43:28;;;;;;;3.85;1.58;;;19.90;89.20;;;;;;5032136;28;20046;-40
2022/07/31 01:45:56;;;;;;;7.10;2.65;;;19.80;89.40;;;;;;5022476;28;20506;-40
2022/07/31 01:48:24;;;;;;;4.50;1.90;;;19.90;89.40;;;;;;5032022;28;20107;-41
2022/07/31 01:50:53;;;;;;;2.47;2.15;;;19.80;89.50;;;;;;5032219;28;20050;-38
2022/07/31 01:53:23;;;;;;;4.00;2.05;;;19.80;90.00;;;;;;5022081;28;20038;-38
2022/07/31 01:55:52;;;;;;;4.13;2.33;;;19.80;90.10;;;;;;5023724;28;20055;-37
2022/07/31 01:58:20;;;;;;;5.53;2.30;;;19.80;90.40;;;;;;5027247;28;20049;-40
2022/07/31 02:00:47;;;;;;;5.35;2.58;;;19.70;90.60;;;;;;5030702;28;20045;-38
2022/07/31 02:03:14;;;;;;;8.52;2.28;;;19.70;90.70;;;;;;5031827;28;20049;-38
2022/07/31 02:05:41;;;;;;;3.53;2.10;;;19.70;90.90;;;;;;5031950;28;20131;-40
2022/07/31 02:08:09;;;;;;;4.63;2.15;;;19.70;90.90;;;;;;5031611;28;20497;-41
2022/07/31 02:10:37;;;;;;;5.53;2.40;;;19.70;90.90;;;;;;5028174;28;20208;-38
2022/07/31 02:13:04;;;;;;;3.95;2.25;;;19.70;91.30;;;;;;5024622;28;20069;-38
2022/07/31 02:15:31;;;;;;;3.15;1.83;;;19.70;91.00;;;;;;5024731;28;20094;-37
2022/07/31 02:17:58;;;;;;;3.50;1.83;;;19.70;91.00;;;;;;5025702;28;20132;-40
2022/07/31 02:20:25;;;;;;;3.75;1.88;;;19.70;91.10;;;;;;5024343;28;20461;-40
2022/07/31 02:22:52;;;;;;;5.07;2.45;;;19.60;91.30;;;;;;5028550;28;20443;-39
2022/07/31 02:25:18;;;;;;;5.53;2.53;;;19.60;91.50;;;;;;5030728;28;20041;-38
2022/07/31 02:27:45;;;;;;;5.47;3.35;;;19.50;91.70;;;;;;5031269;28;20059;-40
2022/07/31 02:30:12;;;;;;;6.20;3.22;;;19.40;91.90;;;;;;5030273;28;20045;-39
2022/07/31 02:32:39;;;;;;;6.15;3.20;;;19.30;92.20;;;;;;5031562;28;20110;-38
2022/07/31 02:35:06;;;;;;;4.93;2.92;;;19.30;92.60;;;;;;5031431;28;20049;-39
2022/07/31 02:37:35;;;;;;;6.95;3.72;;;19.20;92.90;;;;;;5031298;28;20071;-40
2022/07/31 02:40:03;;;;;;;5.57;3.03;;;19.10;93.20;;;;;;5021993;28;20095;-38
2022/07/31 02:42:29;;;;;;;5.32;3.03;;;19.10;93.50;;;;;;5021466;28;20498;-38
2022/07/31 02:44:55;;;;;;;4.78;2.88;;;19.10;93.60;;;;;;5031045;28;20037;-38
2022/07/31 02:47:22;;;;;;;3.50;2.60;;;19.10;93.70;;;;;;5031357;28;20053;-38
2022/07/31 02:49:48;;;;;;;4.40;2.88;;;19.10;93.80;;;;;;5029859;28;20038;-39
2022/07/31 02:52:14;;;;;;;6.05;3.40;;;19.10;94.00;;;;;;5021580;28;20500;-40
2022/07/31 02:54:43;;;;;;;5.20;3.55;;;19.10;94.00;;;;;;5031203;28;20075;-38
2022/07/31 02:57:09;;;;;;;4.65;3.30;;;19.10;94.20;;;;;;5030415;28;20041;-38
2022/07/31 02:59:38;;;;;;;3.65;3.03;;;19.10;94.40;;;;;;5024795;28;20033;-38
2022/07/31 03:02:05;;;;;;;7.38;3.38;;;19.10;94.50;;;;;;5030957;28;20406;-40
2022/07/31 03:04:31;;;;;;;6.53;3.67;;;19.10;94.50;;;;;;5030927;28;20045;-38
2022/07/31 03:06:59;;;;;;;7.00;3.20;;;19.10;94.60;;;;;;5030659;28;20439;-40
2022/07/31 03:09:25;;;;;;;5.68;3.03;;;19.00;94.50;;;;;;5027133;28;20037;-38
2022/07/31 03:11:51;;;;;;;7.15;3.58;;;19.10;94.60;;;;;;5029279;28;20178;-38
2022/07/31 03:14:17;;;;;;;6.63;3.05;;;19.10;94.60;;;;;;5015885;28;20517;-39
2022/07/31 03:16:45;;;;;;;5.25;3.55;;;19.10;94.60;;;;;;5021021;28;20033;-41
2022/07/31 03:19:12;;;;;;;6.85;2.88;;;19.10;94.60;;;;;;5030092;28;20061;-38
2022/07/31 03:21:38;;;;;;;4.25;3.10;;;19.10;94.60;;;;;;5029104;28;20044;-41
2022/07/31 03:24:05;;;;;;;4.97;2.90;;;19.10;94.60;;;;;;5030251;28;20116;-39
2022/07/31 03:26:30;;;;;;;4.13;2.75;;;19.10;94.50;;;;;;5030242;28;20033;-38
2022/07/31 03:28:59;;;;;;;5.43;3.78;;;19.10;94.50;;;;;;5030614;28;20479;-39
2022/07/31 03:31:25;;;;;;;5.22;3.10;;;19.10;94.60;;;;;;5026556;28;20064;-39
2022/07/31 03:33:50;;;;;;;5.20;3.75;;;19.10;94.60;;;;;;5030672;28;20045;-39
2022/07/31 03:36:16;;;;;;;9.95;3.67;;;19.10;94.70;;;;;;5030083;28;20048;-42
2022/07/31 03:38:42;;;;;;;5.68;3.13;;;19.00;94.80;;;;;;5028696;28;20044;-38
2022/07/31 03:41:08;;;;;;;4.75;3.08;;;19.00;94.80;;;;;;5029960;28;20378;-39
2022/07/31 03:43:36;;;;;;;5.13;3.80;;;19.00;94.90;;;;;;5029918;28;20079;-39
2022/07/31 03:46:02;;;;;;;4.70;3.60;;;19.10;95.30;;;;;;5030056;28;20044;-39
2022/07/31 03:48:29;;;;;;;5.80;4.10;;;19.00;95.00;;;;;;5028581;28;20043;-39
2022/07/31 03:50:55;;;;;;;6.95;3.50;;;19.00;95.10;;;;;;5022785;28;20069;-41
2022/07/31 03:53:22;;;;;;;7.43;3.80;;;19.00;95.20;;;;;;5027648;28;20053;-39
2022/07/31 03:55:48;;;;;;;4.85;3.97;;;19.00;95.10;;;;;;5029626;28;20459;-39
2022/07/31 03:58:16;;;;;;;5.43;4.30;;;19.00;95.20;;;;;;5025482;28;20037;-41
2022/07/31 04:00:43;;;;;;;8.23;3.70;;;19.00;95.20;;;;;;5029725;28;20042;-39
2022/07/31 04:03:11;;;;;;;5.15;3.13;;;19.00;95.20;;;;;;5029734;28;20072;-39
2022/07/31 04:05:37;;;;;;;5.72;3.10;;;19.00;95.20;;;;;;5025003;28;20613;-39
2022/07/31 04:08:04;;;;;;;5.97;3.88;;;19.00;95.20;;;;;;5028198;28;20037;-39
2022/07/31 04:10:30;;;;;;;5.18;3.60;;;19.00;95.10;;;;;;5029744;28;20352;-41
2022/07/31 04:12:56;;;;;;;4.40;3.47;;;19.00;95.10;;;;;;5029573;28;20091;-39
2022/07/31 04:15:23;;;;;;;6.28;3.63;;;19.10;95.30;;;;;;5028786;28;20457;-39
2022/07/31 04:17:48;;;;;;;5.55;3.50;;;19.00;95.70;;;;;;5029323;28;20463;-43
2022/07/31 04:20:14;;;;;;;5.50;3.47;;;19.00;95.30;;;;;;5029851;28;20042;-37
2022/07/31 04:22:40;;;;;;;4.15;3.03;;;19.00;95.40;;;;;;5029603;28;20087;-37
2022/07/31 04:25:06;;;;;;;5.78;3.70;;;19.00;95.40;;;;;;5033645;28;20103;-39
2022/07/31 04:27:34;;;;;;;5.07;3.40;;;19.00;95.50;;;;;;5033310;28;20041;-38
2022/07/31 04:30:01;;;;;;;5.30;3.17;;;19.00;95.40;;;;;;5033674;28;20082;-38
2022/07/31 04:32:26;;;;;;;6.85;3.72;;;19.00;95.40;;;;;;5033581;28;20041;-38
2022/07/31 04:34:52;;;;;;;5.60;3.70;;;19.00;95.40;;;;;;5033481;28;20449;-38
2022/07/31 04:37:18;;;;;;;6.50;3.80;;;19.00;95.40;;;;;;5033280;28;20495;-38
2022/07/31 04:39:44;;;;;;;5.82;3.70;;;19.10;95.40;;;;;;5020202;28;20171;-38
2022/07/31 04:42:10;;;;;;;4.93;3.08;;;19.10;95.40;;;;;;5020029;28;20037;-40
2022/07/31 04:44:36;;;;;;;7.22;3.40;;;19.10;95.40;;;;;;5033638;28;20045;-38
2022/07/31 04:47:05;;;;;;;5.43;3.17;;;19.10;95.40;;;;;;5033176;28;20037;-38
2022/07/31 04:49:31;;;;;;;7.80;3.80;;;19.10;95.40;;;;;;5033558;28;20048;-39
2022/07/31 04:51:58;;;;;;;3.72;2.70;;;19.10;95.40;;;;;;5033171;28;20556;-39
2022/07/31 04:54:24;;;;;;;5.78;3.10;;;19.20;95.40;;;;;;5033513;28;20049;-40
2022/07/31 04:56:50;;;;;;;5.80;3.85;;;19.20;95.40;;;;;;5019047;28;20048;-42
2022/07/31 04:59:19;;;;;;;6.88;4.00;;;19.20;95.40;;;;;;5028612;28;20041;-39
2022/07/31 05:01:46;;;;;;;4.68;3.65;;;19.30;95.50;;;;;;5033219;28;20049;-39
2022/07/31 05:04:12;;;;;;;6.00;3.70;;;19.20;95.40;;;;;;5033268;28;20360;-38
2022/07/31 05:06:43;;;;;;;4.45;3.30;;;19.30;95.50;;;;;;5028206;28;20051;-39
2022/07/31 05:09:11;;;;;;;12.40;4.82;;;19.30;95.50;;;;;;5029803;28;20495;-39
2022/07/31 05:11:38;;;;;;;6.10;3.08;;;19.30;95.50;;;;;;5029986;28;20037;-39
2022/07/31 05:14:06;;;;;;;5.72;3.50;;;19.20;95.60;;;;;;5021287;28;20498;-39
2022/07/31 05:16:33;;;;;;;5.85;3.67;;;19.30;95.60;;;;;;5032663;28;20491;-39
2022/07/31 05:18:59;;;;;;;4.70;3.10;;;19.30;95.70;;;;;;5031792;28;20120;-37
2022/07/31 05:21:31;;;;;;;7.32;4.00;;;19.30;95.70;;;;;;5031060;28;20033;-41
2022/07/31 05:23:58;;;;;;;5.93;3.70;;;19.40;95.70;;;;;;5031750;28;20452;-40
2022/07/31 05:26:25;;;;;;;5.07;3.67;;;19.40;95.70;;;;;;5031108;28;20029;-38
2022/07/31 05:28:52;;;;;;;4.78;3.33;;;19.40;95.80;;;;;;5031655;28;20049;-40
2022/07/31 05:31:18;;;;;;;5.05;3.83;;;19.40;96.30;;;;;;5027503;28;20045;-38
2022/07/31 05:33:46;;;;;;;5.70;3.70;;;19.40;95.80;;;;;;5031056;28;20049;-38
2022/07/31 05:36:12;;;;;;;5.90;3.92;;;19.30;95.90;;;;;;5031046;28;20136;-38
2022/07/31 05:38:38;;;;;;;7.15;3.53;;;19.30;96.10;;;;;;5030244;28;20040;-38
2022/07/31 05:41:04;;;;;;;4.88;3.15;;;19.40;96.10;;;;;;5031405;28;20041;-38
2022/07/31 05:43:30;;;;;;;7.75;4.35;;;19.40;96.20;;;;;;5031267;28;20056;-40
2022/07/31 05:45:56;;;;;;;7.25;4.22;;;19.40;96.30;;;;;;5031120;28;20045;-38
2022/07/31 05:48:22;;;;;;;7.93;4.07;;;19.40;96.50;;;;;;5030028;28;20512;-37
2022/07/31 05:50:50;;;;;;;4.35;3.13;;;19.40;96.50;;;;;;5016448;28;20050;-37
2022/07/31 05:53:16;;;;;;;6.57;3.60;;;19.40;96.60;;;;;;5028110;28;20044;-38
2022/07/31 05:55:44;;;;;;;5.18;4.15;;;19.40;96.80;;;;;;5016980;28;20475;-37
2022/07/31 05:58:10;;;;;;;6.95;4.53;;;19.50;96.80;;;;;;5022976;28;20052;-38
2022/07/31 06:00:36;;;;;;;4.80;3.78;;;19.40;96.90;;;;;;5030897;28;20084;-38
2022/07/31 06:03:02;;;;;;;8.07;3.83;;;19.40;97.10;;;;;;5030798;28;20075;-38
2022/07/31 06:05:28;;;;;;;6.82;3.50;;;19.50;97.30;;;;;;5028073;28;20124;-43
2022/07/31 06:07:55;;;;;;;8.95;4.50;;;19.50;97.30;;;;;;5030642;28;20037;-38
2022/07/31 06:10:21;;;;;;;6.78;4.40;;;19.60;97.40;;;;;;5030850;28;20044;-40
2022/07/31 06:12:47;;;;;;;8.30;3.92;;;19.60;97.40;;;;;;5018653;28;20095;-37
2022/07/31 06:15:13;;;;;;;6.80;4.25;;;19.60;97.60;;;;;;5020043;28;20092;-38
2022/07/31 06:17:39;;;;;;;5.65;4.28;;;19.60;97.60;;;;;;4990525;28;1082049;-40
2022/07/31 06:20:06;;;;;;;5.28;4.15;;;19.70;97.70;;;;;;5031748;28;20132;-38
2022/07/31 06:22:32;;;;;;;6.10;4.20;;;19.80;97.80;;;;;;5027433;28;20128;-37
2022/07/31 06:24:57;;;;;;;6.85;5.70;;;19.90;97.90;;;;;;5031350;28;20466;-37
2022/07/31 06:27:23;;;;;;;7.47;5.25;;;20.00;97.80;;;;;;5013243;28;20529;-38
2022/07/31 06:29:49;;;;;;;7.03;4.68;;;20.00;97.70;;;;;;5017904;28;20061;-39
2022/07/31 06:32:15;;;;;;;6.15;4.35;;;20.00;97.80;;;;;;5031227;28;20038;-41
2022/07/31 06:34:41;;;;;;;6.78;5.55;;;20.00;97.90;;;;;;5031651;28;20041;-41
2022/07/31 06:37:07;;;;;;;10.13;4.75;;;20.00;98.10;;;;;;5031101;28;20436;-41
2022/07/31 06:39:33;;;;;;;6.47;4.28;;;20.10;98.20;;;;;;5022671;28;20037;-38
2022/07/31 06:41:59;;;;;;;6.00;4.30;;;20.10;98.40;;;;;;5027922;28;20041;-39
2022/07/31 06:44:25;;;;;;;6.13;4.30;;;20.20;98.40;;;;;;5030485;28;20041;-39
2022/07/31 06:46:50;;;;;;;7.47;4.85;;;20.20;98.60;;;;;;5031001;28;20045;-41
2022/07/31 06:49:17;;;;;;;5.43;3.85;;;20.20;99.00;;;;;;5031221;28;20482;-40
2022/07/31 06:51:43;;;;;;;7.07;5.35;;;20.30;99.10;;;;;;5030498;28;20042;-42
2022/07/31 06:54:10;;;;;;;6.43;4.78;;;20.30;99.00;;;;;;5029878;28;20043;-39
2022/07/31 06:56:37;;;;;;;5.93;4.20;;;20.30;98.90;;;;;;5028636;28;20041;-41
2022/07/31 06:59:04;;;;;;;7.82;4.25;;;20.40;98.90;;;;;;5023828;28;20096;-39
2022/07/31 07:01:30;;;;;;;7.43;5.00;;;20.40;98.80;;;;;;5030696;28;20124;-39
2022/07/31 07:03:55;;;;;;;7.38;5.00;;;20.40;98.80;;;;;;5030839;28;20136;-39
2022/07/31 07:06:22;;;;;;;8.23;4.90;;;20.50;98.70;;;;;;5030512;28;20037;-40
2022/07/31 07:08:48;;;;;;;6.95;5.07;;;20.50;98.40;;;;;;5030885;28;20042;-39
2022/07/31 07:11:13;;;;;;;8.48;4.60;;;20.50;98.10;;;;;;5026039;28;20450;-39
2022/07/31 07:13:40;;;;;;;5.78;4.55;;;20.40;97.90;;;;;;5023679;28;20038;-39
2022/07/31 07:16:06;;;;;;;9.90;4.93;;;20.40;97.90;;;;;;5030575;28;20037;-39
2022/07/31 07:18:32;;;;;;;8.95;4.43;;;20.40;97.90;;;;;;5030477;28;20386;-39
2022/07/31 07:20:57;;;;;;;9.57;5.00;;;20.40;97.90;;;;;;5030304;28;20049;-39
2022/07/31 07:23:23;;;;;;;7.70;4.07;;;20.50;98.00;;;;;;5030589;28;20037;-38
2022/07/31 07:25:49;;;;;;;6.78;4.40;;;20.50;97.80;;;;;;5030242;28;20053;-38
2022/07/31 07:28:15;;;;;;;6.82;4.03;;;20.50;97.90;;;;;;5030467;28;20218;-41
2022/07/31 07:30:41;;;;;;;8.55;4.05;;;20.50;97.70;;;;;;5028205;28;20044;-41
2022/07/31 07:33:07;;;;;;;6.65;3.63;;;20.50;97.70;;;;;;5030371;28;20033;-39
2022/07/31 07:35:33;;;;;;;8.77;4.30;;;20.50;97.80;;;;;;5030528;28;20041;-38
2022/07/31 07:37:58;;;;;;;8.27;3.90;;;20.60;98.10;;;;;;5029930;28;20045;-39
2022/07/31 07:40:25;;;;;;;10.48;3.83;;;20.60;98.10;;;;;;5029532;28;20037;-39
2022/07/31 07:42:51;;;;;;;6.00;3.90;;;20.60;98.10;;;;;;5030271;28;20118;-41
2022/07/31 07:45:17;;;;;;;6.15;4.07;;;20.60;97.70;;;;;;5021751;28;20064;-38
2022/07/31 07:47:43;;;;;;;8.40;4.28;;;20.70;97.80;;;;;;5028972;28;20475;-38
2022/07/31 07:50:09;;;;;;;6.28;4.68;;;20.70;97.80;;;;;;5029982;28;20079;-38
2022/07/31 07:52:37;;;;;;;5.65;3.97;;;20.80;97.60;;;;;;5022206;28;20037;-39
2022/07/31 07:55:04;;;;;;;5.20;3.53;;;20.80;97.90;;;;;;5030285;28;20049;-36
2022/07/31 07:57:31;;;;;;;6.32;4.30;;;20.90;97.60;;;;;;5026551;28;20125;-39
2022/07/31 08:00:05;;;;;;;7.85;4.32;;;21.00;97.40;;;;;;5025708;28;20056;-38
2022/07/31 08:02:31;;;;;;;9.30;4.28;;;21.00;97.30;;;;;;5044310;28;20076;-41
2022/07/31 08:04:57;;;;;;;5.68;3.88;;;21.00;97.40;;;;;;5030128;28;20128;-38
2022/07/31 08:07:29;;;;;;;9.70;5.03;;;21.00;97.60;;;;;;5026126;28;20494;-40
2022/07/31 08:09:55;;;;;;;7.82;4.70;;;21.00;97.90;;;;;;5030152;28;20052;-38
2022/07/31 08:12:21;;;;;;;7.25;4.30;;;21.00;97.80;;;;;;5029432;28;20092;-38
2022/07/31 08:14:47;;;;;;;7.38;5.15;;;21.00;98.30;;;;;;5030157;28;20069;-40
2022/07/31 08:17:13;;;;;;;6.50;4.88;;;21.00;98.50;;;;;;5010900;28;20045;-37
2022/07/31 08:19:40;;;;;;;10.20;4.50;;;21.00;99.40;;;;;;5029870;28;20144;-39
2022/07/31 08:22:07;;;;;;;8.63;4.78;;;21.00;99.80;;;;;;5028313;28;20041;-39
2022/07/31 08:24:32;;;;;;;6.35;5.00;;;21.00;99.90;;;;;;5029446;28;20090;-39
2022/07/31 08:29:44;;;;;;;10.25;5.40;;;20.90;99.90;;;;;;5029583;28;20509;-39
2022/07/31 08:32:10;;;;;;;6.90;5.28;;;20.80;99.90;;;;;;5029658;28;20562;-39
2022/07/31 08:34:36;;;;;;;8.98;5.03;;;20.80;99.90;;;;;;5028331;28;20037;-39
2022/07/31 08:37:03;;;;;;;7.68;4.60;;;20.80;99.90;;;;;;5029271;28;20060;-39
2022/07/31 08:39:29;;;;;;;8.55;4.75;;;20.80;99.90;;;;;;5022536;28;20045;-41
2022/07/31 08:41:55;;;;;;;7.50;5.00;;;20.70;99.90;;;;;;5026758;28;20033;-38
2022/07/31 08:44:20;;;;;;;8.73;5.00;;;20.70;99.90;;;;;;5029473;28;20399;-39
2022/07/31 08:46:47;;;;;;;7.40;4.45;;;20.60;99.90;;;;;;5029196;28;20037;-39
2022/07/31 08:49:15;;;;;;;7.72;5.38;;;20.60;99.90;;;;;;5029548;28;20034;-39
2022/07/31 08:51:42;;;;;;;7.35;4.72;;;20.60;99.90;;;;;;5021168;28;20044;-40
2022/07/31 08:54:09;;;;;;;9.55;5.20;;;20.60;99.90;;;;;;5020675;28;20535;-39
2022/07/31 08:56:37;;;;;;;9.18;5.20;;;20.50;99.90;;;;;;5029169;28;20124;-40
2022/07/31 08:59:04;;;;;;;9.50;6.03;;;20.50;99.90;;;;;;5025013;28;20520;-39
2022/07/31 09:01:32;;;;;;;8.40;4.72;;;20.50;99.90;;;;;;5029277;28;20044;-38
2022/07/31 09:03:57;;;;;;;8.25;5.90;;;20.50;99.90;;;;;;5029165;28;20041;-40
2022/07/31 09:06:23;;;;;;;10.00;5.07;;;20.40;99.90;;;;;;5024247;28;20034;-38
2022/07/31 09:08:49;;;;;;;7.22;5.00;;;20.30;99.90;;;;;;5026592;28;20470;-38
2022/07/31 09:11:15;;;;;;;9.55;5.63;;;20.30;99.90;;;;;;5032953;28;20033;-39
2022/07/31 09:13:55;;;;;;;8.23;5.53;;;20.30;99.90;;;;;;5023045;28;20042;-38
2022/07/31 09:16:21;;;;;;;9.18;5.90;;;20.30;99.90;;;;;;5020165;28;20763;-41
2022/07/31 09:19:01;;;;;;;9.85;6.15;;;20.30;99.90;;;;;;5032474;28;20081;-39
2022/07/31 09:21:41;;;;;;;9.55;6.07;;;20.30;99.90;;;;;;5016812;28;20049;-36
2022/07/31 09:24:09;;;;;;;10.10;5.82;;;20.30;99.90;;;;;;5030506;28;20120;-43
2022/07/31 09:26:36;;;;;;;9.48;6.15;;;20.30;99.90;;;;;;5032451;28;20030;-39
2022/07/31 09:29:07;;;;;;;10.88;5.95;;;20.30;99.90;;;;;;5032577;28;20498;-39
2022/07/31 09:31:34;;;;;;;11.48;6.22;;;20.30;99.90;;;;;;5032816;28;20037;-39
2022/07/31 09:34:00;;;;;;;9.10;5.07;;;20.30;99.90;;;;;;5032687;28;20048;-39
2022/07/31 09:36:27;;;;;;;8.50;5.65;;;20.30;99.90;;;;;;5032119;28;20482;-39
2022/07/31 09:38:55;;;;;;;8.20;5.55;;;20.30;99.90;;;;;;5029875;28;20067;-39
2022/07/31 09:41:21;;;;;;;8.73;5.28;;;20.40;99.90;;;;;;5025392;28;20395;-39
2022/07/31 09:44:04;;;;;;;11.52;6.28;;;20.40;99.90;;;;;;5032410;28;20037;-43
2022/07/31 09:46:43;;;;;;;10.27;5.85;;;20.50;99.90;;;;;;5032175;28;20080;-39
2022/07/31 09:49:09;;;;;;;9.48;5.85;;;20.60;99.90;;;;;;5022063;28;20045;-39
2022/07/31 09:51:47;;;;;;;9.13;5.95;;;20.70;99.90;;;;;;5023432;28;20044;-39
2022/07/31 09:54:23;;;;;;;12.00;5.78;;;20.70;99.90;;;;;;5023430;28;20148;-39
2022/07/31 09:56:49;;;;;;;8.38;5.75;;;20.70;99.90;;;;;;5027220;28;20105;-38
2022/07/31 09:59:16;;;;;;;7.55;5.35;;;20.70;99.90;;;;;;5027330;28;20117;-39
2022/07/31 10:01:44;;;;;;;7.47;5.18;;;20.60;99.90;;;;;;5031975;28;20045;-40
2022/07/31 10:04:10;;;;;;;7.88;5.32;;;20.60;99.90;;;;;;5031917;28;20045;-41
2022/07/31 10:06:38;;;;;;;10.13;6.20;;;20.50;99.90;;;;;;5022721;28;20132;-39
2022/07/31 10:09:05;;;;;;;6.20;5.10;;;20.50;99.90;;;;;;5030429;28;20034;-39
2022/07/31 10:11:31;;;;;;;8.75;5.80;;;20.50;99.90;;;;;;5028389;28;20459;-38
2022/07/31 10:14:00;;;;;;;8.00;5.20;;;20.40;99.90;;;;;;5027180;28;20041;-38
2022/07/31 10:16:31;;;;;;;7.70;5.47;;;20.30;99.90;;;;;;5031606;28;20076;-39
2022/07/31 10:18:59;;;;;;;10.73;5.85;;;20.30;99.90;;;;;;5030767;28;20053;-40
2022/07/31 10:21:36;;;;;;;8.32;5.05;;;20.20;99.90;;;;;;5031062;28;20486;-41
2022/07/31 10:24:04;;;;;;;8.07;5.80;;;20.20;99.90;;;;;;5031401;28;20073;-39
2022/07/31 10:26:30;;;;;;;8.77;5.90;;;20.10;99.90;;;;;;5031367;28;20425;-40
2022/07/31 10:28:56;;;;;;;8.85;6.53;;;20.10;99.90;;;;;;5027410;28;20042;-40
2022/07/31 10:31:22;;;;;;;8.48;5.93;;;20.20;99.90;;;;;;5030290;28;20498;-43
2022/07/31 10:33:48;;;;;;;9.48;6.03;;;20.30;99.90;;;;;;5031468;28;20034;-40
2022/07/31 10:36:19;;;;;;;8.85;5.75;;;20.30;99.90;;;;;;5031347;28;20045;-39
2022/07/31 10:38:58;;;;;;;8.23;5.97;;;20.30;99.90;;;;;;5029580;28;20045;-40
2022/07/31 10:41:43;;;;;;;10.93;6.75;;;20.30;99.90;;;;;;5025235;28;20053;-40
2022/07/31 10:44:17;;;;;;;10.05;7.13;;;20.30;99.90;;;;;;5018220;28;20114;-39
2022/07/31 10:46:43;;;;;;;8.35;6.20;;;20.20;99.90;;;;;;5026069;28;20041;-40
2022/07/31 10:49:08;;;;;;;10.57;6.68;;;20.20;99.90;;;;;;5031248;28;20033;-43
2022/07/31 10:51:45;;;;;;;9.50;6.80;;;20.20;99.90;;;;;;5030846;28;20045;-38
2022/07/31 10:54:12;;;;;;;7.97;6.22;;;20.20;99.90;;;;;;5020417;28;20068;-38
2022/07/31 10:56:44;;;;;;;10.15;6.65;;;20.20;99.90;;;;;;5030660;28;20460;-40
2022/07/31 10:59:11;;;;;;;12.30;7.55;;;20.20;99.90;;;;;;5024036;28;20155;-39
2022/07/31 11:01:50;;;;;;;11.30;7.43;;;20.20;99.90;;;;;;5031007;28;20435;-39
2022/07/31 11:04:26;;;;;;;10.43;7.50;;;20.20;99.90;;;;;;5018134;28;20052;-38
2022/07/31 11:06:52;;;;;;;14.88;9.75;;;20.10;99.90;;;;;;5023816;28;20502;-39
2022/07/31 11:09:26;;;;;;;15.27;9.68;;;20.00;99.90;;;;;;5029281;28;20056;-39
2022/07/31 11:11:53;;;;;;;16.10;10.25;;;20.00;99.90;;;;;;5030455;28;20490;-40
2022/07/31 11:14:34;;;;;;;14.75;9.93;;;19.90;99.90;;;;;;5019510;28;20609;-41
2022/07/31 11:16:59;;;;;;;16.77;10.07;;;19.80;99.90;;;;;;5045991;28;20515;-39
2022/07/31 11:19:39;;;;;;;15.95;10.32;;;19.70;99.90;;;;;;5028767;28;20049;-39
2022/07/31 11:22:13;;;;;;;14.80;10.63;;;19.70;99.90;;;;;;5030490;28;20042;-41
2022/07/31 11:24:51;;;;;;;16.20;9.82;;;19.70;99.90;;;;;;5030354;28;20055;-40
2022/07/31 11:27:17;;;;;;;15.63;10.43;;;19.70;99.90;;;;;;5030310;28;20037;-39
2022/07/31 11:29:43;;;;;;;15.05;10.73;;;19.70;99.90;;;;;;5030317;28;20509;-42
2022/07/31 11:32:14;;;;;;;14.90;10.75;;;19.80;99.90;;;;;;5030068;28;20486;-39
2022/07/31 11:34:53;;;;;;;14.70;10.95;;;19.80;99.90;;;;;;5024248;28;20045;-39
2022/07/31 11:37:25;;;;;;;15.00;11.40;;;19.80;99.90;;;;;;5030249;28;20041;-42
2022/07/31 11:39:52;;;;;;;16.30;10.90;;;19.90;99.90;;;;;;5029069;28;20060;-39
2022/07/31 11:42:19;;;;;;;14.77;11.00;;;19.90;99.90;;;;;;5030214;28;20092;-41
2022/07/31 11:44:45;;;;;;;14.27;10.02;;;20.00;99.90;;;;;;5030166;28;20048;-39
2022/07/31 11:47:11;;;;;;;17.63;12.68;;;20.10;99.90;;;;;;5029029;28;20037;-39
2022/07/31 11:49:37;;;;;;;20.77;11.85;;;20.20;99.90;;;;;;5030009;28;20044;-39
2022/07/31 11:52:06;;;;;;;17.80;12.30;;;20.30;99.90;;;;;;5019604;28;20036;-41
2022/07/31 11:54:32;;;;;;;17.80;12.90;;;20.30;99.90;;;;;;5022260;28;20162;-39
2022/07/31 11:56:58;;;;;;;18.13;12.25;;;20.20;99.90;;;;;;5028511;28;20503;-42
2022/07/31 11:59:31;;;;;;;17.83;12.60;;;20.20;99.90;;;;;;5025920;28;20120;-39
2022/07/31 12:02:08;;;;;;;19.88;13.50;;;20.20;99.90;;;;;;5029763;28;20494;-40
2022/07/31 12:04:36;;;;;;;20.00;13.93;;;20.10;99.90;;;;;;5029996;28;20049;-38
2022/07/31 12:07:06;;;;;;;17.45;13.02;;;20.10;99.90;;;;;;5028028;28;20048;-40
2022/07/31 12:09:32;;;;;;;19.98;14.45;;;20.00;99.90;;;;;;5029929;28;20037;-38
2022/07/31 12:11:59;;;;;;;20.73;14.75;;;20.00;99.90;;;;;;5029487;28;20042;-39
2022/07/31 12:14:31;;;;;;;16.95;11.90;;;19.90;99.90;;;;;;5029749;28;20041;-37
2022/07/31 12:16:57;;;;;;;;;;;19.80;99.90;;;;;;5030105;28;20047;-38
2022/07/31 12:19:28;;;;;;;19.20;13.43;;;19.80;99.90;;;;;;5029482;28;19920;-39
2022/07/31 12:21:54;;;;;;;20.80;14.02;;;19.80;99.90;;;;;;5029586;28;20248;-40
2022/07/31 12:24:20;;;;;;;19.15;14.50;;;19.80;99.90;;;;;;5022466;28;20041;-38
2022/07/31 12:26:51;;;;;;;22.60;13.18;;;19.90;99.90;;;;;;5029491;28;20051;-38
2022/07/31 12:29:18;;;;;;;18.97;13.90;;;20.00;99.90;;;;;;5029648;28;20041;-48
2022/07/31 12:31:49;;;;;;;18.10;12.15;;;20.00;99.90;;;;;;5029567;28;20033;-40
2022/07/31 12:34:33;;;;;;;18.73;13.52;;;20.00;99.90;;;;;;5030015;28;20477;-39
2022/07/31 12:37:11;;;;;;;18.70;12.77;;;20.00;99.90;;;;;;5029370;28;20064;-39
2022/07/31 12:39:46;;;;;;;17.88;14.38;;;20.00;99.90;;;;;;5020727;28;20390;-41
2022/07/31 12:42:26;;;;;;;18.17;13.32;;;19.90;99.90;;;;;;5028806;28;20044;-39
2022/07/31 12:44:54;;;;;;;18.58;12.98;;;19.90;99.90;;;;;;5033757;28;20077;-41
2022/07/31 12:47:31;;;;;;;19.20;14.18;;;20.00;99.90;;;;;;5021297;28;20395;-39
2022/07/31 12:49:58;;;;;;;16.58;12.75;;;20.00;99.90;;;;;;5033418;28;20029;-39